Terminal Aerodrome Forecast
Issued by NWS

Home | Current Version | Previous Version | Text Only | Print | Product List | Glossary On
Versions: 1 2 3 4 5 6 7 8 9 10 11 12
000
FTUS45 KABQ 271100
TAFLVS
TAF
KLVS 271140Z 2712/2812 19008KT P6SM SCT060 BKN090
     FM271700 22011G19KT P6SM SCT090
     FM272200 25011KT P6SM VCSH SCT060 BKN100
     FM280100 28008KT P6SM SCT100=

USA.gov is the U.S. government's official web portal to all federal, state and local government web resources and services.